createdAt,value
2017-11-26T00:01:01.135Z,88.96
2017-11-26T00:02:12.169Z,89.06
2017-11-26T00:03:22.522Z,88.87
2017-11-26T00:04:32.630Z,88.96
2017-11-26T00:05:43.430Z,88.87
2017-11-26T00:06:53.479Z,88.96
2017-11-26T00:08:03.152Z,88.96
2017-11-26T00:09:13.319Z,89.15
2017-11-26T00:10:23.685Z,88.96
2017-11-26T00:11:34.014Z,88.87
2017-11-26T00:12:44.313Z,89.43
2017-11-26T00:13:54.365Z,89.43
2017-11-26T00:15:04.313Z,89.43
2017-11-26T00:16:14.658Z,89.34
2017-11-26T00:17:25.228Z,89.34
2017-11-26T00:18:35.056Z,89.25
2017-11-26T00:19:45.428Z,88.96
2017-11-26T00:20:55.771Z,89.15
2017-11-26T00:22:06.060Z,89.53
2017-11-26T00:23:16.371Z,89.91
2017-11-26T00:24:26.718Z,89.62
2017-11-26T00:25:37.350Z,89.62
2017-11-26T00:26:47.685Z,90
2017-11-26T00:27:58.017Z,89.34
2017-11-26T00:29:08.332Z,89.81
2017-11-26T00:30:19.880Z,89.81
2017-11-26T00:31:30.174Z,89.72
2017-11-26T00:32:40.268Z,89.62
2017-11-26T00:33:50.577Z,89.91
2017-11-26T00:35:00.880Z,89.81
2017-11-26T00:36:11.168Z,89.91
2017-11-26T00:37:21.503Z,90
2017-11-26T00:38:32.044Z,89.91
2017-11-26T00:39:42.384Z,89.62
2017-11-26T00:40:52.670Z,89.62
2017-11-26T00:42:02.405Z,89.62
2017-11-26T00:43:12.577Z,89.53
2017-11-26T00:44:22.886Z,89.62
2017-11-26T00:45:33.299Z,89.25
2017-11-26T00:46:43.267Z,89.34
2017-11-26T00:47:53.330Z,89.43
2017-11-26T00:49:03.855Z,89.06
2017-11-26T00:50:13.934Z,89.34
2017-11-26T00:51:24.310Z,89.25
2017-11-26T00:52:34.803Z,89.34
2017-11-26T00:53:45.316Z,89.62
2017-11-26T00:54:55.752Z,89.62
2017-11-26T00:56:06.292Z,89.62
2017-11-26T00:57:16.653Z,89.43
2017-11-26T00:58:26.968Z,89.77
2017-11-26T00:59:37.256Z,90.1
2017-11-26T01:00:47.563Z,89.81
2017-11-26T01:01:57.579Z,89.43
2017-11-26T01:03:08.068Z,89.62
2017-11-26T01:04:19.154Z,89.53
2017-11-26T01:05:29.799Z,89.62
2017-11-26T01:06:40.339Z,89.62
2017-11-26T01:07:50.677Z,89.72
2017-11-26T01:09:01.849Z,89.25
2017-11-26T01:10:12.208Z,89.72
2017-11-26T01:11:22.568Z,89.72
2017-11-26T01:12:33.343Z,89.81
2017-11-26T01:13:44.313Z,89.62
2017-11-26T01:14:54.823Z,89.15
2017-11-26T01:16:04.452Z,89.25
2017-11-26T01:17:15.671Z,89.81
2017-11-26T01:18:26.340Z,89.58
2017-11-26T01:19:36.688Z,89.77
2017-11-26T01:20:47.632Z,89.58
2017-11-26T01:21:58.170Z,89.43
2017-11-26T01:23:08.888Z,89.39
2017-11-26T01:24:19.821Z,89.58
2017-11-26T01:25:30.314Z,89.53
2017-11-26T01:26:40.356Z,89.62
2017-11-26T01:27:50.681Z,89.91
2017-11-26T01:29:00.987Z,89.43
2017-11-26T01:30:11.307Z,89.39
2017-11-26T01:31:21.878Z,89.11
2017-11-26T01:32:32.170Z,89.34
2017-11-26T01:33:42.678Z,89.01
2017-11-26T01:34:53.200Z,89.01
2017-11-26T01:36:03.656Z,88.87
2017-11-26T01:37:14.411Z,88.96
2017-11-26T01:38:24.420Z,89.15
2017-11-26T01:39:34.378Z,88.68
2017-11-26T01:40:44.682Z,88.73
2017-11-26T01:41:55.042Z,88.87
2017-11-26T01:43:05.941Z,88.87
2017-11-26T01:44:16.228Z,88.82
2017-11-26T01:45:26.338Z,88.77
2017-11-26T01:46:36.621Z,88.82
2017-11-26T01:47:46.940Z,88.54
2017-11-26T01:48:57.539Z,89.06
2017-11-26T01:50:07.820Z,88.87
2017-11-26T01:51:18.770Z,88.82
2017-11-26T01:52:29.143Z,88.96
2017-11-26T01:53:39.530Z,88.73
2017-11-26T01:54:49.961Z,88.96
2017-11-26T01:56:00.950Z,88.2
2017-11-26T01:57:11.531Z,88.77
2017-11-26T01:58:21.577Z,88.96
2017-11-26T01:59:31.945Z,88.77
2017-11-26T02:00:42.449Z,88.39
2017-11-26T02:01:53.276Z,88.01
2017-11-26T02:03:03.666Z,88.06
2017-11-26T02:04:13.953Z,88.25
2017-11-26T02:05:24.316Z,88.16
2017-11-26T02:06:34.395Z,88.29
2017-11-26T02:07:45.660Z,88.25
2017-11-26T02:08:56.160Z,88.25
2017-11-26T02:10:06.842Z,88.25
2017-11-26T02:11:17.150Z,88.16
2017-11-26T02:12:28.060Z,88.16
2017-11-26T02:13:38.619Z,87.87
2017-11-26T02:14:48.895Z,88.16
2017-11-26T02:15:59.117Z,88.25
2017-11-26T02:17:09.399Z,88.16
2017-11-26T02:18:19.825Z,88.25
2017-11-26T02:19:30.113Z,88.25
2017-11-26T02:20:40.432Z,88.16
2017-11-26T02:21:50.708Z,88.25
2017-11-26T02:23:01.063Z,88.35
2017-11-26T02:24:11.572Z,88.25
2017-11-26T02:25:21.645Z,88.16
2017-11-26T02:26:33.871Z,88.35
2017-11-26T02:27:46.194Z,88.16
2017-11-26T02:29:12.009Z,88.25
2017-11-26T02:30:23.245Z,88.06
2017-11-26T02:31:33.861Z,88.06
2017-11-26T02:32:45.396Z,88.25
2017-11-26T02:33:55.911Z,88.16
2017-11-26T02:35:07.097Z,88.35
2017-11-26T02:36:17.032Z,88.06
2017-11-26T02:37:27.376Z,87.97
2017-11-26T02:38:38.286Z,88.16
2017-11-26T02:39:48.765Z,88.06
2017-11-26T02:41:00.327Z,88.16
2017-11-26T02:42:10.415Z,88.35
2017-11-26T02:43:20.679Z,88.06
2017-11-26T02:44:31.152Z,87.97
2017-11-26T02:45:42.227Z,88.06
2017-11-26T02:46:53.046Z,87.77
2017-11-26T02:48:03.549Z,87.87
2017-11-26T02:49:15.078Z,87.59
2017-11-26T02:50:25.554Z,88.25
2017-11-26T02:51:35.616Z,88.16
2017-11-26T02:52:46.057Z,88.16
2017-11-26T02:53:56.360Z,88.25
2017-11-26T02:55:06.695Z,87.97
2017-11-26T02:56:17.024Z,87.68
2017-11-26T02:57:27.453Z,87.87
2017-11-26T02:58:37.781Z,87.59
2017-11-26T02:59:48.103Z,87.77
2017-11-26T03:00:58.158Z,87.4
2017-11-26T03:02:08.070Z,87.49
2017-11-26T03:03:18.306Z,87.49
2017-11-26T03:04:28.608Z,87.02
2017-11-26T03:05:38.606Z,87.12
2017-11-26T03:06:48.692Z,86.93
2017-11-26T03:07:59.052Z,87.02
2017-11-26T03:09:09.326Z,87.02
2017-11-26T03:10:19.469Z,87.4
2017-11-26T03:11:29.428Z,87.3
2017-11-26T03:12:39.394Z,87.21
2017-11-26T03:13:49.697Z,87.02
2017-11-26T03:14:59.984Z,87.02
2017-11-26T03:16:10.560Z,86.93
2017-11-26T03:17:20.320Z,86.74
2017-11-26T03:18:30.634Z,86.74
2017-11-26T03:19:40.984Z,86.93
2017-11-26T03:20:52.328Z,86.93
2017-11-26T03:22:02.703Z,86.55
2017-11-26T03:23:12.970Z,86.83
2017-11-26T03:24:23.274Z,86.83
2017-11-26T03:25:33.557Z,86.83
2017-11-26T03:26:43.587Z,86.83
2017-11-26T03:27:53.634Z,86.83
2017-11-26T03:29:03.746Z,86.55
2017-11-26T03:30:14.070Z,86.74
2017-11-26T03:31:24.386Z,86.74
2017-11-26T03:32:34.774Z,86.83
2017-11-26T03:33:44.672Z,86.83
2017-11-26T03:34:55.096Z,86.93
2017-11-26T03:36:05.214Z,86.83
2017-11-26T03:37:15.164Z,86.83
2017-11-26T03:38:25.445Z,86.93
2017-11-26T03:39:35.484Z,86.83
2017-11-26T03:40:45.816Z,86.74
2017-11-26T03:41:56.078Z,86.83
2017-11-26T03:43:05.815Z,87.02
2017-11-26T03:44:16.168Z,86.83
2017-11-26T03:45:26.513Z,86.64
2017-11-26T03:46:36.776Z,86.74
2017-11-26T03:47:47.045Z,86.35
2017-11-26T03:48:57.361Z,86.83
2017-11-26T03:50:07.472Z,86.83
2017-11-26T03:51:17.762Z,86.93
2017-11-26T03:52:28.048Z,86.93
2017-11-26T03:53:38.227Z,86.83
2017-11-26T03:54:48.302Z,86.93
2017-11-26T03:55:58.420Z,86.74
2017-11-26T03:57:08.741Z,86.07
2017-11-26T03:58:18.770Z,85.88
2017-11-26T03:59:29.048Z,86.07
2017-11-26T04:00:39.401Z,86.16
2017-11-26T04:01:49.720Z,86.45
2017-11-26T04:02:59.836Z,86.16
2017-11-26T04:04:10.160Z,86.35
2017-11-26T04:05:20.267Z,86.07
2017-11-26T04:06:30.229Z,85.88
2017-11-26T04:07:40.659Z,86.07
2017-11-26T04:08:50.716Z,86.26
2017-11-26T04:10:00.998Z,86.35
2017-11-26T04:11:11.490Z,86.26
2017-11-26T04:12:21.518Z,86.16
2017-11-26T04:13:31.255Z,86.16
2017-11-26T04:14:41.284Z,85.78
2017-11-26T04:15:51.567Z,85.78
2017-11-26T04:17:01.650Z,85.78
2017-11-26T04:18:11.936Z,85.88
2017-11-26T04:19:22.282Z,85.88
2017-11-26T04:20:32.586Z,85.88
2017-11-26T04:21:42.594Z,85.5
2017-11-26T04:22:52.640Z,85.41
2017-11-26T04:24:02.938Z,85.5
2017-11-26T04:25:13.210Z,85.5
2017-11-26T04:26:23.512Z,85.5
2017-11-26T04:27:33.464Z,85.22
2017-11-26T04:28:43.795Z,85.13
2017-11-26T04:29:54.125Z,85.22
2017-11-26T04:31:04.011Z,85.5
2017-11-26T04:32:13.790Z,85.5
2017-11-26T04:33:23.849Z,85.97
2017-11-26T04:34:33.914Z,85.88
2017-11-26T04:35:43.972Z,85.97
2017-11-26T04:36:54.300Z,85.97
2017-11-26T04:38:04.589Z,85.88
2017-11-26T04:39:14.860Z,85.78
2017-11-26T04:40:25.125Z,85.6
2017-11-26T04:41:35.419Z,85.78
2017-11-26T04:42:45.671Z,85.41
2017-11-26T04:43:55.751Z,85.5
2017-11-26T04:45:06.032Z,86.07
2017-11-26T04:46:16.311Z,85.97
2017-11-26T04:47:26.076Z,85.78
2017-11-26T04:48:36.496Z,85.88
2017-11-26T04:49:46.769Z,85.78
2017-11-26T04:50:57.067Z,85.69
2017-11-26T04:52:07.082Z,85.78
2017-11-26T04:53:17.425Z,86.26
2017-11-26T04:54:27.925Z,86.16
2017-11-26T04:55:37.566Z,86.16
2017-11-26T04:56:47.861Z,85.88
2017-11-26T04:57:57.756Z,85.97
2017-11-26T04:59:07.517Z,86.22
2017-11-26T05:00:17.590Z,86.31
2017-11-26T05:01:27.950Z,86.22
2017-11-26T05:02:38.270Z,86.22
2017-11-26T05:03:48.612Z,86.31
2017-11-26T05:04:58.900Z,86.79
2017-11-26T05:06:09.174Z,86.5
2017-11-26T05:07:19.702Z,86.41
2017-11-26T05:08:30.011Z,86.5
2017-11-26T05:09:40.320Z,86.79
2017-11-26T05:10:50.721Z,86.69
2017-11-26T05:12:00.740Z,86.5
2017-11-26T05:13:10.837Z,86.31
2017-11-26T05:14:20.473Z,86.41
2017-11-26T05:15:30.760Z,86.69
2017-11-26T05:16:41.250Z,86.83
2017-11-26T05:17:51.540Z,86.79
2017-11-26T05:19:01.822Z,86.55
2017-11-26T05:20:11.836Z,86.69
2017-11-26T05:21:22.012Z,86.69
2017-11-26T05:22:32.014Z,86.55
2017-11-26T05:23:41.940Z,86.69
2017-11-26T05:24:51.677Z,86.69
2017-11-26T05:26:02.006Z,86.69
2017-11-26T05:27:12.508Z,86.5
2017-11-26T05:28:22.553Z,86.69
2017-11-26T05:29:33.047Z,86.31
2017-11-26T05:30:42.871Z,86.55
2017-11-26T05:31:53.057Z,86.5
2017-11-26T05:33:02.806Z,86.6
2017-11-26T05:34:13.120Z,86.69
2017-11-26T05:35:23.465Z,86.22
2017-11-26T05:36:33.746Z,86.79
2017-11-26T05:37:44.030Z,86.6
2017-11-26T05:38:54.327Z,86.79
2017-11-26T05:40:04.607Z,86.69
2017-11-26T05:41:14.904Z,86.88
2017-11-26T05:42:25.199Z,86.79
2017-11-26T05:43:35.569Z,86.79
2017-11-26T05:44:45.877Z,87.35
2017-11-26T05:45:56.169Z,87.26
2017-11-26T05:47:06.442Z,86.98
2017-11-26T05:48:31.202Z,87.16
2017-11-26T05:49:41.284Z,87.45
2017-11-26T05:50:51.632Z,86.98
2017-11-26T05:52:01.981Z,86.79
2017-11-26T05:53:12.284Z,87.07
2017-11-26T05:54:22.787Z,87.35
2017-11-26T05:55:33.106Z,87.26
2017-11-26T05:56:43.428Z,87.16
2017-11-26T05:57:53.784Z,87.07
2017-11-26T05:59:03.813Z,87.07
2017-11-26T06:00:13.866Z,86.98
2017-11-26T06:01:23.861Z,86.98
2017-11-26T06:02:34.262Z,86.98
2017-11-26T06:03:44.414Z,87.45
2017-11-26T06:04:54.717Z,87.26
2017-11-26T06:06:05.002Z,86.69
2017-11-26T06:07:15.359Z,87.54
2017-11-26T06:08:25.686Z,87.16
2017-11-26T06:09:35.693Z,87.26
2017-11-26T06:10:46.043Z,87.35
2017-11-26T06:11:56.026Z,87.07
2017-11-26T06:13:05.971Z,87.07
2017-11-26T06:14:16.263Z,86.98
2017-11-26T06:15:25.887Z,87.45
2017-11-26T06:16:35.920Z,87.35
2017-11-26T06:17:46.188Z,87.26
2017-11-26T06:18:56.494Z,88.02
2017-11-26T06:20:06.748Z,87.83
2017-11-26T06:21:17.067Z,87.73
2017-11-26T06:22:27.460Z,87.73
2017-11-26T06:23:37.976Z,87.54
2017-11-26T06:24:48.294Z,87.64
2017-11-26T06:25:58.315Z,88.02
2017-11-26T06:27:08.605Z,88.21
2017-11-26T06:28:18.932Z,88.21
2017-11-26T06:29:29.204Z,88.21
2017-11-26T06:30:39.473Z,87.64
2017-11-26T06:31:49.437Z,88.21
2017-11-26T06:32:59.763Z,88.4
2017-11-26T06:34:09.787Z,88.21
2017-11-26T06:35:20.091Z,88.21
2017-11-26T06:36:30.404Z,88.21
2017-11-26T06:37:40.804Z,88.21
2017-11-26T06:38:51.231Z,88.21
2017-11-26T06:40:01.299Z,88.21
2017-11-26T06:41:11.304Z,88.11
2017-11-26T06:42:21.214Z,88.4
2017-11-26T06:43:31.574Z,88.11
2017-11-26T06:44:41.860Z,88.11
2017-11-26T06:45:52.190Z,88.21
2017-11-26T06:47:05.366Z,88.4
2017-11-26T06:48:17.319Z,88.11
2017-11-26T06:49:27.319Z,88.11
2017-11-26T06:50:37.792Z,88.21
2017-11-26T06:51:48.067Z,88.02
2017-11-26T06:52:58.659Z,88.21
2017-11-26T06:54:09.194Z,88.21
2017-11-26T06:55:19.585Z,88.02
2017-11-26T06:56:29.855Z,88.4
2017-11-26T06:57:40.158Z,87.64
2017-11-26T06:58:50.218Z,88.21
2017-11-26T07:00:00.745Z,88.68
2017-11-26T07:01:10.965Z,88.3
2017-11-26T07:02:21.257Z,88.21
2017-11-26T07:03:31.603Z,88.21
2017-11-26T07:04:41.866Z,88.21
2017-11-26T07:05:51.833Z,88.3
2017-11-26T07:07:01.846Z,88.11
2017-11-26T07:08:12.367Z,88.11
2017-11-26T07:09:22.719Z,88.02
2017-11-26T07:10:32.633Z,88.02
2017-11-26T07:11:42.932Z,88.21
2017-11-26T07:12:53.252Z,88.11
2017-11-26T07:14:03.543Z,88.21
2017-11-26T07:15:13.935Z,88.21
2017-11-26T07:16:23.986Z,87.92
2017-11-26T07:17:34.346Z,87.92
2017-11-26T07:18:44.301Z,88.21
2017-11-26T07:19:54.564Z,88.21
2017-11-26T07:21:04.901Z,88.87
2017-11-26T07:22:14.898Z,88.11
2017-11-26T07:23:24.965Z,88.21
2017-11-26T07:24:35.310Z,88.68
2017-11-26T07:25:45.632Z,88.21
2017-11-26T07:26:55.912Z,88.21
2017-11-26T07:28:06.223Z,88.4
2017-11-26T07:29:16.543Z,87.64
2017-11-26T07:30:26.858Z,87.92
2017-11-26T07:31:37.147Z,88.02
2017-11-26T07:32:47.446Z,88.21
2017-11-26T07:33:57.773Z,88.11
2017-11-26T07:35:08.045Z,88.21
2017-11-26T07:36:18.347Z,88.11
2017-11-26T07:37:28.629Z,87.92
2017-11-26T07:38:38.567Z,87.83
2017-11-26T07:39:48.982Z,88.11
2017-11-26T07:40:59.323Z,87.73
2017-11-26T07:42:09.650Z,87.54
2017-11-26T07:43:19.944Z,87.54
2017-11-26T07:44:29.965Z,88.11
2017-11-26T07:45:40.235Z,88.11
2017-11-26T07:46:49.875Z,87.64
2017-11-26T07:48:00.160Z,87.54
2017-11-26T07:49:10.438Z,87.83
2017-11-26T07:50:20.733Z,87.16
2017-11-26T07:51:31.089Z,87.45
2017-11-26T07:52:41.498Z,86.83
2017-11-26T07:53:51.819Z,87.21
2017-11-26T07:55:02.152Z,85.78
2017-11-26T07:56:12.194Z,86.83
2017-11-26T07:57:22.484Z,86.16
2017-11-26T07:58:33.015Z,85.88
2017-11-26T07:59:43.326Z,86.26
2017-11-26T08:00:53.660Z,85.13
2017-11-26T08:02:03.946Z,85.31
2017-11-26T08:03:14.204Z,84.74
2017-11-26T08:04:24.360Z,85.41
2017-11-26T08:05:34.671Z,85.31
2017-11-26T08:06:44.700Z,85.31
2017-11-26T08:07:55.003Z,84.94
2017-11-26T08:09:05.280Z,84.84
2017-11-26T08:10:15.555Z,84.74
2017-11-26T08:11:26.289Z,84.74
2017-11-26T08:12:37.743Z,85.13
2017-11-26T08:13:48.026Z,85.31
2017-11-26T08:14:58.221Z,84.98
2017-11-26T08:16:09.500Z,85.22
2017-11-26T08:17:20.373Z,84.98
2017-11-26T08:18:30.911Z,84.78
2017-11-26T08:19:40.925Z,84.88
2017-11-26T08:20:51.225Z,83.94
2017-11-26T08:22:01.393Z,83.94
2017-11-26T08:23:11.718Z,84.31
2017-11-26T08:24:22.077Z,84.41
2017-11-26T08:25:32.945Z,84.12
2017-11-26T08:26:43.252Z,84.12
2017-11-26T08:27:53.543Z,84.41
2017-11-26T08:29:04.041Z,83.94
2017-11-26T08:30:14.405Z,84.12
2017-11-26T08:31:24.746Z,84.22
2017-11-26T08:32:34.842Z,84.22
2017-11-26T08:33:45.129Z,82.98
2017-11-26T08:34:55.236Z,83.17
2017-11-26T08:36:37.473Z,82.89
2017-11-26T08:37:48.010Z,82.98
2017-11-26T08:38:58.293Z,83.03
2017-11-26T08:40:08.577Z,83.03
2017-11-26T08:41:19.056Z,82.93
2017-11-26T08:42:29.333Z,82.65
2017-11-26T08:43:39.631Z,82.84
2017-11-26T08:44:49.970Z,82.93
2017-11-26T08:46:00.264Z,82.36
2017-11-26T08:47:10.293Z,82.08
2017-11-26T08:48:20.626Z,82.08
2017-11-26T08:49:30.921Z,82.27
2017-11-26T08:50:41.299Z,82.17
2017-11-26T08:51:51.624Z,82.27
2017-11-26T08:53:01.948Z,82.08
2017-11-26T08:54:12.256Z,82.08
2017-11-26T08:55:22.304Z,81.32
2017-11-26T08:56:32.559Z,81.45
2017-11-26T08:57:42.907Z,81.23
2017-11-26T08:58:53.320Z,81.32
2017-11-26T09:00:03.649Z,81.32
2017-11-26T09:01:13.959Z,80.79
2017-11-26T09:02:24.327Z,80.6
2017-11-26T09:03:34.738Z,80.98
2017-11-26T09:04:44.762Z,80.13
2017-11-26T09:05:55.307Z,80.32
2017-11-26T09:07:05.603Z,80.13
2017-11-26T09:08:15.917Z,80.98
2017-11-26T09:09:26.427Z,79.84
2017-11-26T09:10:36.397Z,80.03
2017-11-26T09:11:46.749Z,79.74
2017-11-26T09:12:57.065Z,80.03
2017-11-26T09:14:07.396Z,80.03
2017-11-26T09:15:17.086Z,80.22
2017-11-26T09:16:27.427Z,80.51
2017-11-26T09:17:37.941Z,80.51
2017-11-26T09:18:48.295Z,80.51
2017-11-26T09:19:58.616Z,80.03
2017-11-26T09:21:08.754Z,80.51
2017-11-26T09:22:18.842Z,80.13
2017-11-26T09:23:29.194Z,79.94
2017-11-26T09:24:39.221Z,80.13
2017-11-26T09:25:49.273Z,79.79
2017-11-26T09:26:59.666Z,79.41
2017-11-26T09:28:10.017Z,78.93
2017-11-26T09:29:20.311Z,78.74
2017-11-26T09:30:31.405Z,78.21
2017-11-26T09:31:41.313Z,77.64
2017-11-26T09:32:51.664Z,77.68
2017-11-26T09:34:02.021Z,76.48
2017-11-26T09:35:12.298Z,75.43
2017-11-26T09:36:22.617Z,75.28
2017-11-26T09:37:32.929Z,74.27
2017-11-26T09:38:43.287Z,73.99
2017-11-26T09:39:53.930Z,72.88
2017-11-26T09:41:04.415Z,72.02
2017-11-26T09:42:14.982Z,71.11
2017-11-26T09:43:25.303Z,70.53
2017-11-26T09:44:35.850Z,69.39
2017-11-26T09:45:45.904Z,69.04
2017-11-26T09:46:56.099Z,68.66
2017-11-26T09:48:06.245Z,68.47
2017-11-26T09:49:16.805Z,68.12
2017-11-26T09:50:27.464Z,67.93
2017-11-26T09:51:40.207Z,66.78
2017-11-26T09:52:50.724Z,66.22
2017-11-26T09:54:03.110Z,65.1
2017-11-26T09:55:14.367Z,63.86
2017-11-26T09:56:24.609Z,64.43
2017-11-26T09:57:34.903Z,63.86
2017-11-26T09:58:45.245Z,63.96
2017-11-26T09:59:55.583Z,63.57
2017-11-26T10:01:05.621Z,63.99
2017-11-26T10:02:15.707Z,64.28
2017-11-26T10:03:26.040Z,61.06
2017-11-26T10:04:37.664Z,61.82
2017-11-26T10:05:47.985Z,59.15
2017-11-26T10:06:58.035Z,60.64
2017-11-26T10:08:08.452Z,59.24
2017-11-26T10:09:18.843Z,59.24
2017-11-26T10:10:29.189Z,61.16
2017-11-26T10:11:39.622Z,59.34
2017-11-26T10:12:50.204Z,57.71
2017-11-26T10:14:01.512Z,59.12
2017-11-26T10:15:12.891Z,59.31
2017-11-26T10:20:10.521Z,61.25
2017-11-26T10:21:20.676Z,62.11
2017-11-26T10:22:31.529Z,62.08
2017-11-26T10:23:41.527Z,62.18
2017-11-26T10:24:51.817Z,60.84
2017-11-26T10:26:01.837Z,61.13
2017-11-26T10:27:12.155Z,61.8
2017-11-26T10:28:22.700Z,62.11
2017-11-26T10:29:33.502Z,61.35
2017-11-26T10:30:43.858Z,61.41
2017-11-26T10:31:54.200Z,61.63
2017-11-26T10:33:04.519Z,62.21
2017-11-26T10:34:14.694Z,62.65
2017-11-26T10:35:25.026Z,61.7
2017-11-26T10:36:35.543Z,61.41
2017-11-26T10:37:45.880Z,61.73
2017-11-26T10:38:56.247Z,62.02
2017-11-26T10:40:06.659Z,60.68
2017-11-26T10:41:16.912Z,60.04
2017-11-26T10:42:27.345Z,60.52
2017-11-26T10:43:38.060Z,61.13
2017-11-26T10:44:50.545Z,60.07
2017-11-26T10:46:01.363Z,59.34
2017-11-26T10:47:12.476Z,59.72
2017-11-26T10:48:23.035Z,59.72
2017-11-26T10:49:33.332Z,59.24
2017-11-26T10:50:43.480Z,58.98
2017-11-26T10:51:54.110Z,59.18
2017-11-26T10:53:05.278Z,57.36
2017-11-26T10:54:30.059Z,55.16
2017-11-26T10:55:40.725Z,54.68
2017-11-26T10:56:50.857Z,55.26
2017-11-26T10:58:00.927Z,55.54
2017-11-26T10:59:11.251Z,56.02
2017-11-26T11:00:21.615Z,56.28
2017-11-26T11:01:31.967Z,57.31
2017-11-26T11:02:42.057Z,57.78
2017-11-26T11:03:52.444Z,58.14
2017-11-26T11:05:02.833Z,58.8
2017-11-26T11:06:12.936Z,58.14
2017-11-26T11:07:23.307Z,58.99
2017-11-26T11:08:33.422Z,58.97
2017-11-26T11:09:43.603Z,59.34
2017-11-26T11:10:53.965Z,59.03
2017-11-26T11:12:04.081Z,59.25
2017-11-26T11:13:14.144Z,59.51
2017-11-26T11:14:24.481Z,58.94
2017-11-26T11:15:34.807Z,59.03
2017-11-26T11:16:44.872Z,59.48
2017-11-26T11:17:55.513Z,59.57
2017-11-26T11:19:05.871Z,60.05
2017-11-26T11:20:16.419Z,60.78
2017-11-26T11:21:26.907Z,61.54
2017-11-26T11:23:09.124Z,61.93
2017-11-26T11:24:19.207Z,63.04
2017-11-26T11:25:29.340Z,63.42
2017-11-26T11:26:39.433Z,63.89
2017-11-26T11:27:49.243Z,64.08
2017-11-26T11:28:59.350Z,64.53
2017-11-26T11:30:09.747Z,64.81
2017-11-26T11:31:20.205Z,65.58
2017-11-26T11:32:30.279Z,65.48
2017-11-26T11:33:40.646Z,65.86
2017-11-26T11:34:50.466Z,65.38
2017-11-26T11:36:00.793Z,65.58
2017-11-26T11:37:11.182Z,65.92
2017-11-26T11:38:21.760Z,65.92
2017-11-26T11:39:31.855Z,65.92
2017-11-26T11:40:41.854Z,66.05
2017-11-26T11:41:52.037Z,66.14
2017-11-26T11:43:02.921Z,66.24
2017-11-26T11:44:13.176Z,66.05
2017-11-26T11:45:23.559Z,66.05
2017-11-26T11:46:34.213Z,65.95
2017-11-26T11:47:44.438Z,66.05
2017-11-26T11:48:54.536Z,66.14
2017-11-26T11:50:04.885Z,66.43
2017-11-26T11:51:15.219Z,66.53
2017-11-26T11:52:25.544Z,66.24
2017-11-26T11:53:35.664Z,66.39
2017-11-26T11:54:45.818Z,66.87
2017-11-26T11:55:56.170Z,66.59
2017-11-26T11:57:06.537Z,67.25
2017-11-26T11:58:16.859Z,67.92
2017-11-26T11:59:27.706Z,67.63
2017-11-26T12:00:38.134Z,67.73
2017-11-26T12:01:48.261Z,67.63
2017-11-26T12:02:58.574Z,68.11
2017-11-26T12:04:08.932Z,68.4
2017-11-26T12:05:19.332Z,68.17
2017-11-26T12:06:29.474Z,68.11
2017-11-26T12:07:39.823Z,68.4
2017-11-26T12:08:49.890Z,68.55
2017-11-26T12:10:00.278Z,68.93
2017-11-26T12:11:10.620Z,69.12
2017-11-26T12:12:20.699Z,69.41
2017-11-26T12:13:30.387Z,69.21
2017-11-26T12:14:40.602Z,69.12
2017-11-26T12:15:50.959Z,69.31
2017-11-26T12:17:01.528Z,69.69
2017-11-26T12:18:11.842Z,69.73
2017-11-26T12:19:22.453Z,69.73
2017-11-26T12:20:32.781Z,69.63
2017-11-26T12:21:42.790Z,69.54
2017-11-26T12:22:53.222Z,69.92
2017-11-26T12:24:03.599Z,69.82
2017-11-26T12:25:13.605Z,69.82
2017-11-26T12:26:24.050Z,69.82
2017-11-26T12:27:34.422Z,69.6
2017-11-26T12:28:44.759Z,69.79
2017-11-26T12:29:55.560Z,69.98
2017-11-26T12:31:05.940Z,69.63
2017-11-26T12:32:15.838Z,70.17
2017-11-26T12:33:26.181Z,70.17
2017-11-26T12:34:36.531Z,70.17
2017-11-26T12:35:46.880Z,70.26
2017-11-26T12:36:57.609Z,70.36
2017-11-26T12:38:07.684Z,69.98
2017-11-26T12:39:17.747Z,70.45
2017-11-26T12:40:27.868Z,70.36
2017-11-26T12:41:38.217Z,70.74
2017-11-26T12:42:48.512Z,70.83
2017-11-26T12:43:58.563Z,70.36
2017-11-26T12:45:08.931Z,70.83
2017-11-26T12:46:19.045Z,70.74
2017-11-26T12:47:29.345Z,70.83
2017-11-26T12:48:39.703Z,70.64
2017-11-26T12:49:49.763Z,70.74
2017-11-26T12:50:59.823Z,70.54
2017-11-26T12:52:10.138Z,70.83
2017-11-26T12:53:20.462Z,70.93
2017-11-26T12:54:31.048Z,71.12
2017-11-26T12:55:41.391Z,71.12
2017-11-26T12:56:51.402Z,71.12
2017-11-26T12:58:01.768Z,71.59
2017-11-26T12:59:11.745Z,71.5
2017-11-26T13:00:21.788Z,71.41
2017-11-26T13:01:32.942Z,71.97
2017-11-26T13:02:43.294Z,72.26
2017-11-26T13:03:53.284Z,71.78
2017-11-26T13:05:03.670Z,71.97
2017-11-26T13:06:14.001Z,72.07
2017-11-26T13:07:24.414Z,71.78
2017-11-26T13:08:34.773Z,71.84
2017-11-26T13:09:44.744Z,72.22
2017-11-26T13:10:55.105Z,72.6
2017-11-26T13:12:05.218Z,72.7
2017-11-26T13:13:14.908Z,72.6
2017-11-26T13:14:25.277Z,72.32
2017-11-26T13:15:35.653Z,72.51
2017-11-26T13:16:46.017Z,73.08
2017-11-26T13:17:56.453Z,73.27
2017-11-26T13:19:06.773Z,73.46
2017-11-26T13:20:17.309Z,73.36
2017-11-26T13:21:28.301Z,73.74
2017-11-26T13:22:38.559Z,73.74
2017-11-26T13:23:48.754Z,73.65
2017-11-26T13:24:59.405Z,73.65
2017-11-26T13:26:10.029Z,73.46
2017-11-26T13:27:20.005Z,73.74
2017-11-26T13:28:30.379Z,74.03
2017-11-26T13:29:40.467Z,73.74
2017-11-26T13:30:50.886Z,73.84
2017-11-26T13:32:01.224Z,74.12
2017-11-26T13:33:11.320Z,74.31
2017-11-26T13:34:21.675Z,74.12
2017-11-26T13:35:32.544Z,74.41
2017-11-26T13:36:43.005Z,74.22
2017-11-26T13:37:53.481Z,74.12
2017-11-26T13:39:03.252Z,74.31
2017-11-26T13:40:13.335Z,74.88
2017-11-26T13:41:23.700Z,75.07
2017-11-26T13:42:34.084Z,75.17
2017-11-26T13:43:43.885Z,75.36
2017-11-26T13:44:53.978Z,75.84
2017-11-26T13:46:03.795Z,75.36
2017-11-26T13:47:14.122Z,75.64
2017-11-26T13:48:24.466Z,75.55
2017-11-26T13:49:34.794Z,75.84
2017-11-26T13:50:45.144Z,75.74
2017-11-26T13:51:59.331Z,75.64
2017-11-26T13:53:09.757Z,75.93
2017-11-26T13:54:20.091Z,76.03
2017-11-26T13:55:30.747Z,75.93
2017-11-26T13:56:42.087Z,75.64
2017-11-26T13:57:55.989Z,75.84
2017-11-26T13:59:06.328Z,75.93
2017-11-26T14:00:31.042Z,76.03
2017-11-26T14:01:41.819Z,76.03
2017-11-26T14:02:52.166Z,76.31
2017-11-26T14:04:02.126Z,76.03
2017-11-26T14:05:12.918Z,75.74
2017-11-26T14:06:22.969Z,75.74
2017-11-26T14:07:33.282Z,75.64
2017-11-26T14:08:43.654Z,75.55
2017-11-26T14:09:54.034Z,75.93
2017-11-26T14:11:04.446Z,75.84
2017-11-26T14:12:14.446Z,76.12
2017-11-26T14:13:24.907Z,75.64
2017-11-26T14:14:35.268Z,75.74
2017-11-26T14:15:45.647Z,75.74
2017-11-26T14:16:55.725Z,75.93
2017-11-26T14:18:06.205Z,76.03
2017-11-26T14:19:16.584Z,75.64
2017-11-26T14:20:27.065Z,76.21
2017-11-26T14:21:37.604Z,76.03
2017-11-26T14:22:49.064Z,75.64
2017-11-26T14:24:00.589Z,75.55
2017-11-26T14:25:11.690Z,76.21
2017-11-26T14:26:21.684Z,75.84
2017-11-26T14:27:32.061Z,75.45
2017-11-26T14:28:42.441Z,76.12
2017-11-26T14:29:53.481Z,76.03
2017-11-26T14:31:03.341Z,76.21
2017-11-26T14:32:13.742Z,76.31
2017-11-26T14:33:24.062Z,76.31
2017-11-26T14:34:34.502Z,76.21
2017-11-26T14:35:44.854Z,76.31
2017-11-26T14:36:54.809Z,76.31
2017-11-26T14:38:05.157Z,76.37
2017-11-26T14:39:15.522Z,76.84
2017-11-26T14:40:25.842Z,76.56
2017-11-26T14:41:36.180Z,76.46
2017-11-26T14:42:46.591Z,76.37
2017-11-26T14:43:56.986Z,76.56
2017-11-26T14:45:06.747Z,76.56
2017-11-26T14:46:17.417Z,76.27
2017-11-26T14:47:27.641Z,76.75
2017-11-26T14:48:38.034Z,76.65
2017-11-26T14:49:48.491Z,77.12
2017-11-26T14:50:59.475Z,77.03
2017-11-26T14:52:10.054Z,77.03
2017-11-26T14:53:20.764Z,77.12
2017-11-26T14:54:31.226Z,76.75
2017-11-26T14:55:41.695Z,77.12
2017-11-26T14:56:52.121Z,77.12
2017-11-26T14:58:02.118Z,77.03
2017-11-26T14:59:12.586Z,77.03
2017-11-26T15:00:22.998Z,76.84
2017-11-26T15:01:32.933Z,77.03
2017-11-26T15:02:43.300Z,77.03
2017-11-26T15:03:53.324Z,77.03
2017-11-26T15:05:03.644Z,77.51
2017-11-26T15:06:13.992Z,77.6
2017-11-26T15:07:24.116Z,77.41
2017-11-26T15:08:34.459Z,77.79
2017-11-26T15:09:44.654Z,78.08
2017-11-26T15:10:54.989Z,77.79
2017-11-26T15:12:05.361Z,77.89
2017-11-26T15:13:15.627Z,78.08
2017-11-26T15:14:25.436Z,78.08